Time;durP1;ratioP1;P1;durP2;ratioP2;P2;SDS_P1;SDS_P2;PMS_P1;PMS_P2;Temp;Humidity;BMP_temperature;BMP_pressure;BME280_temperature;BME280_humidity;BME280_pressure;Samples;Min_cycle;Max_cycle;Signal;HPM_P1;HPM_P2
2022/04/21 00:00:47;;;;;;;7.60;4.85;;;4.20;99.90;;;;;;4896148;29;20499;-48
2022/04/21 00:03:14;;;;;;;9.52;4.57;;;4.30;99.90;;;;;;4896508;29;20230;-48
2022/04/21 00:05:41;;;;;;;7.63;4.10;;;4.30;99.90;;;;;;4879673;29;20701;-48
2022/04/21 00:08:09;;;;;;;4.95;4.10;;;4.30;99.90;;;;;;4887703;29;20084;-49
2022/04/21 00:10:36;;;;;;;6.35;4.22;;;4.20;99.90;;;;;;4896143;29;20442;-48
2022/04/21 00:13:03;;;;;;;6.68;4.18;;;4.20;99.90;;;;;;4896389;29;20482;-49
2022/04/21 00:15:30;;;;;;;7.85;4.07;;;4.20;99.90;;;;;;4896006;29;20044;-50
2022/04/21 00:17:58;;;;;;;9.07;4.70;;;4.20;99.90;;;;;;4896351;29;20056;-49
2022/04/21 00:20:26;;;;;;;9.25;4.93;;;4.20;99.90;;;;;;4896149;29;20048;-48
2022/04/21 00:25:38;;;;;;;9.60;4.80;;;3.90;99.90;;;;;;4891578;29;20044;-51
2022/04/21 00:28:06;;;;;;;8.93;5.18;;;3.70;99.90;;;;;;4896453;29;20053;-48
2022/04/21 00:30:32;;;;;;;6.43;4.30;;;3.60;99.90;;;;;;4895826;29;20092;-49
2022/04/21 00:32:59;;;;;;;7.63;4.25;;;3.50;99.90;;;;;;4896173;29;20497;-50
2022/04/21 00:35:26;;;;;;;7.13;4.05;;;3.60;99.90;;;;;;4889310;29;20040;-48
2022/04/21 00:37:55;;;;;;;8.25;4.60;;;3.70;99.90;;;;;;4896239;29;20602;-48
2022/04/21 00:40:27;;;;;;;9.48;4.50;;;3.80;99.90;;;;;;4895999;29;20490;-49
2022/04/21 00:42:55;;;;;;;7.28;4.45;;;3.90;99.90;;;;;;4895568;29;20040;-48
2022/04/21 00:45:23;;;;;;;8.50;4.90;;;3.90;99.90;;;;;;4895966;29;20093;-49
2022/04/21 00:47:52;;;;;;;5.35;3.63;;;3.90;99.90;;;;;;4896169;29;20045;-50
2022/04/21 00:50:22;;;;;;;8.85;4.30;;;3.90;99.90;;;;;;4895300;29;20048;-49
2022/04/21 00:52:50;;;;;;;6.32;4.10;;;3.80;99.90;;;;;;4896012;29;20048;-48
2022/04/21 00:55:19;;;;;;;7.07;3.90;;;3.90;99.90;;;;;;4896216;29;20040;-48
2022/04/21 00:57:48;;;;;;;11.68;4.65;;;3.90;99.90;;;;;;4895863;29;20044;-48
2022/04/21 01:00:16;;;;;;;9.45;4.30;;;3.90;99.90;;;;;;4895117;29;20124;-48
2022/04/21 01:02:46;;;;;;;9.57;4.47;;;3.90;99.90;;;;;;4895914;29;20112;-49
2022/04/21 01:05:31;;;;;;;10.05;4.15;;;3.90;99.90;;;;;;4896186;29;20120;-49
2022/04/21 01:08:02;;;;;;;7.78;4.20;;;3.90;99.90;;;;;;4895437;29;20067;-50
2022/04/21 01:10:31;;;;;;;9.50;4.70;;;3.90;99.90;;;;;;4895598;29;20401;-52
2022/04/21 01:12:59;;;;;;;7.55;4.38;;;3.80;99.90;;;;;;4895926;29;20068;-49
2022/04/21 01:15:26;;;;;;;8.60;4.75;;;3.80;99.90;;;;;;4895969;29;20059;-48
2022/04/21 01:17:54;;;;;;;8.95;5.07;;;3.70;99.90;;;;;;4895332;29;20051;-49
2022/04/21 01:20:21;;;;;;;;;;;3.70;99.90;;;;;;4898556;29;20052;-49
2022/04/21 01:22:48;;;;;;;7.40;4.65;;;3.60;99.90;;;;;;4899087;29;19935;-51
2022/04/21 01:25:15;;;;;;;8.77;4.75;;;3.50;99.90;;;;;;4899298;29;20045;-48
2022/04/21 01:27:43;;;;;;;8.60;5.00;;;3.40;99.90;;;;;;4898568;29;20498;-49
2022/04/21 01:30:11;;;;;;;9.75;4.85;;;3.40;99.90;;;;;;4898853;29;20451;-48
2022/04/21 01:32:51;;;;;;;7.55;4.63;;;3.40;99.90;;;;;;4898999;29;20465;-50
2022/04/21 01:35:18;;;;;;;7.68;4.53;;;3.30;99.90;;;;;;4898440;29;20045;-48
2022/04/21 01:43:16;;;;;;;11.77;4.53;;;3.30;99.90;;;;;;4898994;29;20053;-48
2022/04/21 01:45:43;;;;;;;;;;;3.30;99.90;;;;;;4898598;29;20391;-50
2022/04/21 01:48:10;;;;;;;10.43;5.18;;;3.40;99.90;;;;;;4898719;29;19923;-49
2022/04/21 01:50:37;;;;;;;8.07;4.53;;;3.30;99.90;;;;;;4898436;29;20104;-48
2022/04/21 01:53:04;;;;;;;9.52;4.93;;;3.40;99.90;;;;;;4898046;29;20127;-49
2022/04/21 01:55:31;;;;;;;5.68;3.00;;;3.40;99.90;;;;;;4898723;29;20421;-49
2022/04/21 01:57:58;;;;;;;9.48;4.43;;;3.90;99.90;;;;;;4898563;29;20107;-49
2022/04/21 02:00:25;;;;;;;6.65;4.28;;;3.40;99.90;;;;;;4898314;29;20052;-48
2022/04/21 02:02:52;;;;;;;8.52;4.70;;;3.30;99.90;;;;;;4898201;29;20044;-48
2022/04/21 02:05:19;;;;;;;7.93;4.75;;;3.20;99.90;;;;;;4898294;29;20040;-48
2022/04/21 02:07:47;;;;;;;7.70;4.80;;;3.00;99.90;;;;;;4881879;29;20056;-49
2022/04/21 02:10:14;;;;;;;;;;;2.90;99.90;;;;;;4898468;29;20048;-49
2022/04/21 02:12:41;;;;;;;10.93;5.15;;;2.90;99.90;;;;;;4897713;29;19924;-48
2022/04/21 02:15:08;;;;;;;8.82;4.63;;;2.80;99.90;;;;;;4898411;29;20055;-48
2022/04/21 02:17:36;;;;;;;10.95;4.60;;;2.60;99.90;;;;;;4898411;29;20056;-50
2022/04/21 02:20:08;;;;;;;10.48;4.95;;;2.50;99.90;;;;;;4897352;29;20060;-48
2022/04/21 02:22:35;;;;;;;8.45;4.95;;;2.50;99.90;;;;;;4898057;29;20108;-50
2022/04/21 02:25:06;;;;;;;10.35;4.78;;;2.60;99.90;;;;;;4898104;29;20052;-48
2022/04/21 02:27:34;;;;;;;8.63;4.93;;;2.60;99.90;;;;;;4898192;29;20120;-50
2022/04/21 02:30:01;;;;;;;11.65;5.10;;;2.60;99.90;;;;;;4896661;29;20041;-48
2022/04/21 02:32:28;;;;;;;5.72;3.55;;;2.70;99.90;;;;;;4914014;23;20048;-54
2022/04/21 02:34:55;;;;;;;12.95;5.28;;;2.70;99.90;;;;;;4912780;29;20159;-53
2022/04/21 02:37:23;;;;;;;9.60;5.05;;;2.80;99.90;;;;;;4916586;29;20108;-55
2022/04/21 02:39:49;;;;;;;10.70;4.97;;;2.90;99.90;;;;;;4916367;29;20052;-55
2022/04/21 02:42:18;;;;;;;9.45;5.03;;;2.90;99.90;;;;;;4912947;29;20036;-54
2022/04/21 02:44:44;;;;;;;8.63;4.78;;;2.90;99.90;;;;;;4916428;29;20040;-53
2022/04/21 02:47:11;;;;;;;5.63;3.22;;;3.00;99.90;;;;;;4916671;29;20047;-53
2022/04/21 02:49:40;;;;;;;7.30;4.85;;;3.00;99.90;;;;;;4916241;29;20528;-52
2022/04/21 02:52:09;;;;;;;9.38;5.22;;;3.00;99.90;;;;;;4908907;29;20040;-52
2022/04/21 02:57:22;;;;;;;9.32;4.85;;;3.00;99.90;;;;;;4916509;29;20044;-53
2022/04/21 02:59:54;;;;;;;9.55;5.20;;;3.00;99.90;;;;;;4913498;29;20040;-52
2022/04/21 03:02:22;;;;;;;8.60;4.82;;;3.00;99.90;;;;;;4916511;29;20119;-53
2022/04/21 03:04:51;;;;;;;7.90;4.75;;;3.00;99.90;;;;;;4916104;29;20085;-53
2022/04/21 03:07:20;;;;;;;8.45;4.75;;;3.10;99.90;;;;;;4911495;29;20677;-52
2022/04/21 03:09:48;;;;;;;7.85;4.82;;;3.00;99.90;;;;;;4915747;29;20040;-52
2022/04/21 03:12:14;;;;;;;;;;;3.10;99.90;;;;;;4916574;29;20390;-53
2022/04/21 03:14:42;;;;;;;9.23;5.00;;;3.00;99.90;;;;;;4916106;29;19923;-55
2022/04/21 03:17:09;;;;;;;10.02;5.35;;;3.00;99.90;;;;;;4909149;29;20045;-54
2022/04/21 03:19:37;;;;;;;11.65;4.65;;;2.80;99.90;;;;;;4915585;29;20509;-54
2022/04/21 03:24:50;;;;;;;11.80;5.45;;;2.40;99.90;;;;;;4915910;29;20047;-53
2022/04/21 03:27:17;;;;;;;11.15;5.88;;;2.30;99.90;;;;;;4908639;29;20044;-55
2022/04/21 03:29:44;;;;;;;8.48;4.90;;;2.30;99.90;;;;;;4915250;29;20036;-53
2022/04/21 03:32:13;;;;;;;8.90;5.70;;;2.30;99.90;;;;;;4915732;29;20036;-53
2022/04/21 03:34:44;;;;;;;9.80;5.78;;;2.40;99.90;;;;;;4915786;29;20480;-55
2022/04/21 03:37:13;;;;;;;12.65;6.07;;;2.50;99.90;;;;;;4909643;29;20119;-52
2022/04/21 03:39:42;;;;;;;13.60;6.00;;;2.50;99.90;;;;;;4915282;29;20055;-53
2022/04/21 03:42:31;;;;;;;12.77;7.00;;;2.50;99.90;;;;;;4915367;29;20047;-53
2022/04/21 03:44:59;;;;;;;12.40;6.05;;;2.50;99.90;;;;;;4912746;29;20099;-53
2022/04/21 03:47:26;;;;;;;12.45;6.00;;;2.50;99.90;;;;;;4915507;29;20051;-55
2022/04/21 03:49:53;;;;;;;13.77;6.82;;;2.40;99.90;;;;;;4915260;29;20056;-55
2022/04/21 03:52:19;;;;;;;12.35;6.13;;;2.30;99.90;;;;;;4915523;29;20051;-54
2022/04/21 03:54:46;;;;;;;13.98;6.85;;;2.30;99.90;;;;;;4914031;29;20111;-55
2022/04/21 03:57:13;;;;;;;7.82;4.45;;;2.40;99.90;;;;;;4915369;29;20417;-53
2022/04/21 03:59:40;;;;;;;13.35;6.35;;;2.50;99.90;;;;;;4915177;29;20048;-55
2022/04/21 04:02:07;;;;;;;11.75;6.45;;;2.50;99.90;;;;;;4914528;29;20044;-55
2022/04/21 04:04:38;;;;;;;10.93;5.93;;;2.50;99.90;;;;;;4908430;29;20095;-53
2022/04/21 04:12:37;;;;;;;17.70;6.68;;;2.60;99.90;;;;;;4910047;29;20404;-57
2022/04/21 04:15:06;;;;;;;20.38;6.78;;;2.50;99.90;;;;;;4915226;29;20056;-56
2022/04/21 04:17:33;;;;;;;12.68;5.95;;;2.40;99.90;;;;;;4915252;29;20055;-55
2022/04/21 04:20:00;;;;;;;12.07;6.32;;;2.20;99.90;;;;;;4914895;29;20645;-54
2022/04/21 04:22:27;;;;;;;11.50;6.22;;;2.10;99.90;;;;;;4908375;29;20406;-50
2022/04/21 04:24:55;;;;;;;14.20;7.38;;;2.00;99.90;;;;;;4915068;29;20040;-52
2022/04/21 04:27:22;;;;;;;13.77;6.72;;;2.00;99.90;;;;;;4914952;29;20115;-54
2022/04/21 04:29:49;;;;;;;13.68;6.90;;;2.10;99.90;;;;;;4914816;29;20096;-52
2022/04/21 04:32:16;;;;;;;12.23;6.43;;;2.10;99.90;;;;;;4907163;29;20091;-55
2022/04/21 04:34:43;;;;;;;11.85;5.25;;;2.20;99.90;;;;;;4915123;29;20505;-54
2022/04/21 04:37:10;;;;;;;12.95;7.38;;;2.30;99.90;;;;;;4914578;29;20107;-53
2022/04/21 04:39:37;;;;;;;9.70;4.95;;;2.30;99.90;;;;;;4912367;29;20112;-54
2022/04/21 04:42:16;;;;;;;12.48;6.05;;;2.30;99.90;;;;;;4914540;29;20507;-52
2022/04/21 04:44:47;;;;;;;16.02;5.72;;;2.20;99.90;;;;;;4913709;29;20044;-52
2022/04/21 04:47:14;;;;;;;9.10;5.75;;;2.30;99.90;;;;;;4910311;29;20052;-52
2022/04/21 04:49:42;;;;;;;10.98;6.55;;;2.20;99.90;;;;;;4914201;29;20036;-53
2022/04/21 04:52:09;;;;;;;9.35;5.05;;;2.20;99.90;;;;;;4914568;29;20032;-50
2022/04/21 04:54:36;;;;;;;10.95;5.88;;;2.30;99.90;;;;;;4916802;29;20608;-51
2022/04/21 04:57:03;;;;;;;10.07;5.65;;;2.40;99.90;;;;;;4912609;29;20055;-51
2022/04/21 04:59:30;;;;;;;;;;;2.50;99.90;;;;;;4917688;29;20048;-54
2022/04/21 05:01:57;;;;;;;10.00;5.70;;;2.50;99.90;;;;;;4921392;29;19927;-52
2022/04/21 05:04:25;;;;;;;10.20;5.43;;;2.70;99.90;;;;;;4922695;29;20068;-53
2022/04/21 05:06:57;;;;;;;9.65;5.82;;;2.70;99.90;;;;;;4918275;29;20453;-54
2022/04/21 05:09:25;;;;;;;11.63;5.88;;;2.80;99.90;;;;;;4918239;29;20048;-51
2022/04/21 05:11:54;;;;;;;10.10;5.68;;;2.90;99.90;;;;;;4918077;29;20821;-53
2022/04/21 05:14:22;;;;;;;10.95;5.88;;;3.10;99.90;;;;;;4912968;29;20143;-52
2022/04/21 05:16:50;;;;;;;12.73;6.75;;;3.10;99.90;;;;;;4917656;29;20059;-53
2022/04/21 05:19:21;;;;;;;12.88;7.13;;;3.30;99.90;;;;;;4901217;29;20051;-54
2022/04/21 05:21:49;;;;;;;17.67;7.40;;;3.40;99.90;;;;;;4917572;29;20099;-51
2022/04/21 05:24:17;;;;;;;13.15;7.10;;;3.50;99.90;;;;;;4914399;29;20528;-55
2022/04/21 05:26:45;;;;;;;;;;;3.50;99.90;;;;;;4917723;29;20059;-53
2022/04/21 05:32:00;;;;;;;15.70;7.57;;;3.60;99.90;;;;;;4915441;29;20062;-52
2022/04/21 05:34:28;;;;;;;16.63;7.03;;;3.60;99.90;;;;;;4910153;29;20062;-52
2022/04/21 05:36:58;;;;;;;14.13;6.70;;;3.70;99.90;;;;;;4916967;29;20060;-52
2022/04/21 05:39:26;;;;;;;11.65;5.88;;;3.60;99.90;;;;;;4916395;29;20047;-56
2022/04/21 05:41:54;;;;;;;12.90;6.13;;;3.60;99.90;;;;;;4916400;29;20056;-51
2022/04/21 05:44:21;;;;;;;11.25;6.47;;;3.60;99.90;;;;;;4917633;29;20506;-50
2022/04/21 05:46:48;;;;;;;11.73;6.32;;;3.60;99.90;;;;;;4916924;29;20056;-53
2022/04/21 05:49:17;;;;;;;13.88;6.90;;;3.70;99.90;;;;;;4910246;29;20044;-52
2022/04/21 05:51:46;;;;;;;15.35;7.80;;;3.70;99.90;;;;;;4917110;29;20442;-52
2022/04/21 05:54:14;;;;;;;14.60;7.40;;;3.80;99.90;;;;;;4917136;29;20044;-50
2022/04/21 05:56:41;;;;;;;14.30;7.35;;;3.90;99.90;;;;;;4916281;29;20042;-53
2022/04/21 05:59:08;;;;;;;12.88;7.40;;;4.00;99.90;;;;;;4917335;29;20063;-51
2022/04/21 06:01:35;;;;;;;14.90;8.17;;;4.10;99.90;;;;;;4916475;29;20108;-51
2022/04/21 06:04:02;;;;;;;12.90;7.38;;;4.20;99.90;;;;;;4917479;29;20296;-56
2022/04/21 06:06:29;;;;;;;15.15;8.00;;;4.40;99.90;;;;;;4912352;29;20094;-51
2022/04/21 06:08:56;;;;;;;29.40;8.95;;;4.50;99.90;;;;;;4917172;29;20061;-54
2022/04/21 06:11:24;;;;;;;17.65;8.80;;;4.60;99.90;;;;;;4916696;29;20059;-52
2022/04/21 06:13:51;;;;;;;18.55;7.75;;;4.70;99.90;;;;;;4916470;29;20127;-52
2022/04/21 06:16:18;;;;;;;20.25;8.20;;;4.90;99.90;;;;;;4915678;29;20197;-53
2022/04/21 06:18:45;;;;;;;24.05;8.23;;;5.00;99.90;;;;;;4917261;29;20746;-52
2022/04/21 06:21:11;;;;;;;14.00;8.07;;;5.10;99.90;;;;;;4916553;29;20048;-54
2022/04/21 06:23:38;;;;;;;16.58;7.93;;;5.20;99.90;;;;;;4911765;29;20479;-54
2022/04/21 06:26:05;;;;;;;20.75;7.72;;;5.30;99.90;;;;;;4913979;29;20044;-53
2022/04/21 06:28:34;;;;;;;14.43;7.97;;;5.40;99.90;;;;;;4916988;29;20494;-53
2022/04/21 06:31:01;;;;;;;12.77;7.68;;;5.50;99.90;;;;;;4913866;29;20104;-53
2022/04/21 06:33:31;;;;;;;12.43;8.05;;;5.60;99.90;;;;;;4908819;29;20076;-53
2022/04/21 06:35:59;;;;;;;12.18;7.25;;;5.60;99.90;;;;;;4916788;29;20055;-52
2022/04/21 06:38:27;;;;;;;10.75;7.05;;;5.70;99.90;;;;;;4916775;29;20143;-50
2022/04/21 06:40:53;;;;;;;11.05;7.50;;;5.80;99.90;;;;;;4909587;29;20044;-52
2022/04/21 06:48:51;;;;;;;14.55;7.45;;;6.20;99.90;;;;;;4912562;29;20383;-53
2022/04/21 06:51:18;;;;;;;9.18;5.40;;;6.30;99.90;;;;;;4914419;29;20040;-55
2022/04/21 06:53:45;;;;;;;10.77;7.43;;;6.50;99.90;;;;;;4915712;29;20052;-54
2022/04/21 06:56:13;;;;;;;11.43;7.55;;;6.60;99.90;;;;;;4916224;29;20509;-50
2022/04/21 06:58:40;;;;;;;15.15;7.65;;;6.60;99.90;;;;;;4910880;29;20044;-51
2022/04/21 07:01:07;;;;;;;15.00;7.70;;;6.80;99.90;;;;;;4915310;29;20056;-54
2022/04/21 07:03:35;;;;;;;10.25;6.88;;;6.90;99.90;;;;;;4916517;29;20051;-50
2022/04/21 07:06:03;;;;;;;9.68;6.70;;;7.00;99.90;;;;;;4916008;29;20066;-52
2022/04/21 07:08:30;;;;;;;12.77;6.82;;;7.00;99.90;;;;;;4909578;29;20046;-50
2022/04/21 07:10:57;;;;;;;9.50;6.60;;;6.90;99.90;;;;;;4915828;29;20077;-51
2022/04/21 07:13:23;;;;;;;14.18;7.15;;;7.10;99.90;;;;;;4916078;29;20048;-54
2022/04/21 07:15:50;;;;;;;10.00;6.57;;;7.20;99.90;;;;;;4911410;29;20052;-51
2022/04/21 07:18:18;;;;;;;10.82;6.80;;;7.40;99.90;;;;;;4914283;29;20123;-51
2022/04/21 07:20:45;;;;;;;;;;;7.50;99.90;;;;;;4916331;29;20084;-51
2022/04/21 07:23:12;;;;;;;9.30;6.45;;;7.70;99.90;;;;;;4915804;29;19935;-55
2022/04/21 07:25:39;;;;;;;9.75;6.45;;;7.70;99.90;;;;;;4911722;29;20387;-51
2022/04/21 07:28:06;;;;;;;9.35;6.20;;;7.90;99.90;;;;;;4912940;29;20044;-53
2022/04/21 07:30:33;;;;;;;12.88;5.90;;;8.10;99.90;;;;;;4915188;29;20040;-54
2022/04/21 07:33:01;;;;;;;10.50;5.70;;;8.20;99.90;;;;;;4915613;29;20104;-53
2022/04/21 07:35:29;;;;;;;9.43;6.05;;;8.30;99.90;;;;;;4912604;29;20040;-53
2022/04/21 07:37:59;;;;;;;9.90;6.97;;;8.40;99.90;;;;;;4915688;29;20044;-53
2022/04/21 07:40:26;;;;;;;12.20;6.45;;;8.50;99.90;;;;;;4915245;29;20443;-55
2022/04/21 07:42:54;;;;;;;10.32;5.82;;;8.70;99.90;;;;;;4915632;29;20127;-53
2022/04/21 07:45:21;;;;;;;10.93;6.00;;;8.80;99.90;;;;;;4912506;29;20044;-52
2022/04/21 07:47:48;;;;;;;8.73;5.97;;;9.00;99.90;;;;;;4915431;29;20047;-52
2022/04/21 07:50:15;;;;;;;10.73;6.35;;;9.00;99.90;;;;;;4915085;29;20048;-52
2022/04/21 07:53:14;;;;;;;10.05;5.82;;;9.10;99.90;;;;;;4910255;29;20533;-54
2022/04/21 07:55:50;;;;;;;8.82;5.72;;;9.30;99.90;;;;;;4915512;29;20071;-55
2022/04/21 07:58:17;;;;;;;11.27;5.65;;;9.50;99.90;;;;;;4915325;29;20050;-54
2022/04/21 08:00:44;;;;;;;11.27;5.43;;;9.70;99.90;;;;;;4912127;29;20044;-55
2022/04/21 08:03:15;;;;;;;10.10;5.38;;;9.80;99.90;;;;;;4915239;29;20123;-54
2022/04/21 08:05:42;;;;;;;6.57;5.00;;;10.00;99.90;;;;;;4915291;29;20104;-53
2022/04/21 08:08:11;;;;;;;6.82;5.03;;;10.10;99.90;;;;;;4915429;29;20616;-53
2022/04/21 08:10:38;;;;;;;11.52;5.53;;;10.20;99.90;;;;;;4909651;29;20450;-52
2022/04/21 08:13:05;;;;;;;10.10;6.25;;;10.20;99.90;;;;;;4915132;29;20052;-52
2022/04/21 08:15:34;;;;;;;8.90;6.35;;;10.20;99.90;;;;;;4915198;29;20157;-53
2022/04/21 08:18:07;;;;;;;8.15;5.68;;;10.40;99.90;;;;;;4910713;29;20409;-53
2022/04/21 08:20:34;;;;;;;8.98;5.82;;;10.50;99.90;;;;;;4913232;29;20051;-52
2022/04/21 08:23:04;;;;;;;9.68;5.15;;;10.70;99.90;;;;;;4915159;29;20359;-53
2022/04/21 08:35:13;;;;;;;10.05;5.70;;;11.30;99.90;;;;;;4858528;29;20057;-53
2022/04/21 08:37:41;;;;;;;10.80;6.10;;;11.40;99.90;;;;;;4862437;29;20048;-49
2022/04/21 08:40:12;;;;;;;8.45;5.70;;;11.40;99.90;;;;;;4862184;29;20057;-49
2022/04/21 08:42:41;;;;;;;8.25;5.85;;;11.30;99.90;;;;;;4861404;29;20045;-48
2022/04/21 08:45:09;;;;;;;8.73;5.60;;;11.20;99.90;;;;;;4863065;29;20050;-49
2022/04/21 08:47:40;;;;;;;8.82;5.53;;;11.10;99.90;;;;;;4881172;29;20455;-49
2022/04/21 08:50:11;;;;;;;10.82;5.70;;;11.30;99.90;;;;;;4881038;29;20052;-50
2022/04/21 08:52:41;;;;;;;9.93;6.10;;;11.40;99.90;;;;;;4866906;29;20521;-49
2022/04/21 08:55:11;;;;;;;9.93;5.72;;;11.50;99.90;;;;;;4860706;29;20064;-49
2022/04/21 08:57:38;;;;;;;8.98;5.95;;;11.60;99.90;;;;;;4851152;29;20101;-49
2022/04/21 09:00:08;;;;;;;7.50;5.40;;;11.80;99.90;;;;;;4858687;29;20448;-49
2022/04/21 09:02:39;;;;;;;8.27;6.40;;;11.90;99.90;;;;;;4857716;29;20041;-50
2022/04/21 09:05:07;;;;;;;12.93;6.43;;;12.10;99.90;;;;;;4854863;29;20053;-48
2022/04/21 09:07:47;;;;;;;8.57;6.43;;;11.90;99.90;;;;;;4857684;29;20101;-48
2022/04/21 09:10:34;;;;;;;8.90;6.25;;;12.00;99.90;;;;;;4852522;29;20449;-49
2022/04/21 09:13:02;;;;;;;10.40;6.50;;;11.90;99.90;;;;;;4858171;29;20072;-49
2022/04/21 09:15:33;;;;;;;15.40;7.18;;;12.00;99.90;;;;;;4860421;29;20060;-48
2022/04/21 09:18:09;;;;;;;16.02;6.70;;;11.90;99.90;;;;;;4859567;29;20041;-49
2022/04/21 09:20:36;;;;;;;12.60;6.75;;;12.00;99.90;;;;;;4852690;29;20399;-52
2022/04/21 09:23:10;;;;;;;10.45;7.00;;;12.10;99.90;;;;;;4858732;29;20060;-51
2022/04/21 09:25:51;;;;;;;12.30;6.85;;;12.20;99.90;;;;;;4859067;29;20037;-48
2022/04/21 09:28:23;;;;;;;13.10;6.43;;;12.40;99.90;;;;;;4860787;29;20049;-49
2022/04/21 09:30:52;;;;;;;10.98;5.80;;;12.40;99.90;;;;;;4858700;29;20049;-51
2022/04/21 09:33:32;;;;;;;9.07;6.57;;;12.50;99.90;;;;;;4860649;29;20204;-49
2022/04/21 09:36:01;;;;;;;12.63;6.82;;;12.60;99.90;;;;;;4856740;29;20054;-49
2022/04/21 09:38:28;;;;;;;11.80;7.30;;;12.50;99.90;;;;;;4853525;29;20045;-48
2022/04/21 09:40:55;;;;;;;11.40;7.03;;;12.50;99.90;;;;;;4857733;29;20041;-49
2022/04/21 09:43:30;;;;;;;10.63;6.90;;;12.60;99.90;;;;;;4860776;29;20055;-50
2022/04/21 09:46:16;;;;;;;11.63;6.38;;;12.70;99.90;;;;;;4858754;29;20052;-49
2022/04/21 09:48:45;;;;;;;12.38;7.13;;;12.60;99.90;;;;;;4859651;29;20498;-50
2022/04/21 09:51:15;;;;;;;11.90;6.32;;;12.60;99.90;;;;;;4856673;29;20061;-49
2022/04/21 09:54:02;;;;;;;9.98;6.82;;;12.60;99.90;;;;;;4857935;29;20053;-49
2022/04/21 09:56:34;;;;;;;13.75;7.70;;;12.50;99.90;;;;;;4857662;29;20053;-50
2022/04/21 09:59:03;;;;;;;12.77;6.90;;;12.60;99.90;;;;;;4860635;29;20102;-48
2022/04/21 10:01:33;;;;;;;9.13;6.13;;;12.60;99.90;;;;;;4854995;29;20041;-48
2022/04/21 10:04:04;;;;;;;9.52;6.38;;;12.70;99.90;;;;;;4860548;29;20068;-49
2022/04/21 10:06:31;;;;;;;14.98;7.40;;;12.70;99.90;;;;;;4855932;29;20052;-51
2022/04/21 10:08:58;;;;;;;;;;;12.80;99.90;;;;;;4860560;29;20600;-49
2022/04/21 10:11:25;;;;;;;9.00;6.10;;;13.00;99.90;;;;;;4854717;29;19924;-48
2022/04/21 10:13:58;;;;;;;13.40;6.70;;;13.10;99.90;;;;;;4860186;29;20056;-50
2022/04/21 10:16:28;;;;;;;12.40;6.25;;;13.10;99.90;;;;;;4855516;29;20056;-50
2022/04/21 10:18:58;;;;;;;11.15;6.20;;;13.00;99.90;;;;;;4857734;29;20045;-50
2022/04/21 10:21:28;;;;;;;9.50;6.47;;;13.10;99.90;;;;;;4857554;29;20040;-48
2022/04/21 10:23:55;;;;;;;8.20;5.70;;;13.20;99.90;;;;;;4857114;29;20094;-52
2022/04/21 10:26:40;;;;;;;10.07;5.97;;;13.40;99.90;;;;;;4855769;29;20101;-50
2022/04/21 10:29:12;;;;;;;10.48;5.90;;;13.30;99.20;;;;;;4859996;29;20049;-50
2022/04/21 10:31:54;;;;;;;11.52;5.65;;;13.30;99.20;;;;;;4855297;29;20057;-50
2022/04/21 10:34:28;;;;;;;9.07;6.15;;;13.40;99.90;;;;;;4857417;29;20045;-49
2022/04/21 10:37:21;;;;;;;7.88;5.53;;;13.50;99.90;;;;;;4851944;29;20052;-49
2022/04/21 10:40:11;;;;;;;10.25;5.78;;;13.60;99.20;;;;;;4858743;29;20061;-50
2022/04/21 10:42:53;;;;;;;9.57;5.35;;;13.70;98.50;;;;;;4853561;29;20050;-49
2022/04/21 10:45:28;;;;;;;8.05;5.30;;;13.70;98.90;;;;;;4856045;29;20053;-50
2022/04/21 10:48:14;;;;;;;7.57;4.82;;;13.80;98.10;;;;;;4860066;29;20141;-51
2022/04/21 10:50:42;;;;;;;7.18;4.90;;;13.80;97.20;;;;;;4852349;29;20108;-49
2022/04/21 10:58:47;;;;;;;8.98;4.97;;;14.10;96.10;;;;;;4855411;29;20440;-49
2022/04/21 11:01:15;;;;;;;8.05;4.97;;;14.10;97.10;;;;;;4853239;29;20042;-51
2022/04/21 11:03:44;;;;;;;7.10;4.65;;;14.20;95.20;;;;;;4859310;29;20049;-48
2022/04/21 11:06:13;;;;;;;6.90;4.32;;;14.20;94.50;;;;;;4856152;29;20049;-48
2022/04/21 11:08:41;;;;;;;6.32;4.05;;;14.20;94.70;;;;;;4859169;29;20427;-50
2022/04/21 11:11:08;;;;;;;7.28;4.40;;;14.20;93.40;;;;;;4856087;29;20521;-50
2022/04/21 11:13:52;;;;;;;10.38;4.78;;;14.30;93.20;;;;;;4859025;29;20045;-49
2022/04/21 11:16:40;;;;;;;8.98;4.50;;;14.50;95.00;;;;;;4857110;29;20105;-49
2022/04/21 11:19:28;;;;;;;5.13;3.80;;;14.70;93.20;;;;;;4859083;29;20106;-52
2022/04/21 11:22:10;;;;;;;8.75;4.32;;;14.70;93.30;;;;;;4856953;29;20102;-48
2022/04/21 11:24:55;;;;;;;5.22;3.88;;;14.70;92.20;;;;;;4858241;29;20041;-49
2022/04/21 11:27:22;;;;;;;7.30;3.90;;;14.60;92.00;;;;;;4851525;29;20053;-50
2022/04/21 11:29:49;;;;;;;6.03;3.65;;;14.70;90.50;;;;;;4858817;29;20114;-52
2022/04/21 11:32:19;;;;;;;9.40;4.25;;;14.60;88.90;;;;;;4855768;29;20064;-50
2022/04/21 11:35:10;;;;;;;11.00;4.40;;;14.60;90.50;;;;;;4859543;29;20042;-51
2022/04/21 11:38:09;;;;;;;8.68;3.97;;;14.50;90.90;;;;;;4856426;29;20053;-51
2022/04/21 11:40:38;;;;;;;6.00;3.78;;;14.60;91.90;;;;;;4814685;29;20053;-48
2022/04/21 11:43:17;;;;;;;7.82;4.55;;;14.70;90.70;;;;;;4858748;29;20509;-52
2022/04/21 11:46:05;;;;;;;6.88;4.55;;;14.80;91.40;;;;;;4855381;29;20049;-49
2022/04/21 11:48:34;;;;;;;7.35;4.40;;;14.80;89.40;;;;;;4858038;29;20048;-49
2022/04/21 11:51:01;;;;;;;6.68;4.05;;;14.90;88.70;;;;;;4855444;29;20046;-50
2022/04/21 11:53:29;;;;;;;;;;;14.90;91.10;;;;;;4857572;29;20535;-49
2022/04/21 11:55:56;;;;;;;8.77;4.35;;;15.00;90.30;;;;;;4855146;29;19961;-49
2022/04/21 11:58:31;;;;;;;11.57;4.72;;;15.00;90.60;;;;;;4858890;29;20033;-50
2022/04/21 12:06:51;;;;;;;6.38;4.35;;;15.00;90.30;;;;;;4851372;29;20041;-51
2022/04/21 12:09:21;;;;;;;9.43;4.22;;;15.00;88.80;;;;;;4857869;29;20045;-49
2022/04/21 12:11:52;;;;;;;6.00;3.88;;;15.10;90.30;;;;;;4852454;29;20050;-50
2022/04/21 12:14:19;;;;;;;7.60;3.75;;;15.20;87.50;;;;;;4858480;29;20056;-52
2022/04/21 12:16:54;;;;;;;7.57;4.00;;;15.10;88.10;;;;;;4854502;29;20041;-52
2022/04/21 12:19:34;;;;;;;7.63;3.65;;;15.20;90.60;;;;;;4858341;29;20056;-49
2022/04/21 12:22:09;;;;;;;4.85;3.83;;;15.50;90.20;;;;;;4853803;29;20430;-48
2022/04/21 12:24:42;;;;;;;6.60;4.28;;;15.50;88.90;;;;;;4858406;29;20043;-51
2022/04/21 12:27:23;;;;;;;7.97;4.43;;;15.50;88.40;;;;;;4853576;29;20052;-53
2022/04/21 12:29:53;;;;;;;5.82;3.88;;;15.30;85.80;;;;;;4853804;29;20050;-49
2022/04/21 12:32:32;;;;;;;8.55;4.55;;;15.40;91.60;;;;;;4852922;29;20133;-54
2022/04/21 12:35:06;;;;;;;6.97;4.50;;;15.40;87.90;;;;;;4857697;29;20053;-50
2022/04/21 12:37:40;;;;;;;6.75;4.40;;;15.40;89.10;;;;;;4856427;29;20451;-51
2022/04/21 12:40:12;;;;;;;9.32;4.32;;;15.50;86.70;;;;;;4857121;29;20049;-51
2022/04/21 12:42:45;;;;;;;6.85;4.45;;;15.50;86.20;;;;;;4856465;29;20094;-48
2022/04/21 12:45:12;;;;;;;6.72;4.20;;;15.60;85.30;;;;;;4857049;29;20535;-53
2022/04/21 12:47:52;;;;;;;7.05;4.70;;;15.60;87.30;;;;;;4856077;29;20056;-53
2022/04/21 12:50:20;;;;;;;7.43;3.90;;;15.60;86.80;;;;;;4855760;29;20045;-48
2022/04/21 12:52:55;;;;;;;5.38;3.70;;;15.60;87.50;;;;;;4856810;29;20045;-49
2022/04/21 12:55:30;;;;;;;9.52;4.13;;;15.80;87.60;;;;;;4854184;29;20050;-51
2022/04/21 12:58:00;;;;;;;8.45;4.22;;;15.80;88.20;;;;;;4856919;29;20045;-52
2022/04/21 13:00:28;;;;;;;5.88;3.90;;;15.70;85.60;;;;;;4855340;29;20054;-53
2022/04/21 13:02:55;;;;;;;7.95;4.47;;;15.70;88.00;;;;;;4855314;29;20041;-52
2022/04/21 13:05:21;;;;;;;9.25;4.82;;;15.70;89.60;;;;;;4856259;29;20057;-50
2022/04/21 13:07:48;;;;;;;6.57;4.53;;;15.60;88.30;;;;;;4854207;29;20057;-50
2022/04/21 13:10:16;;;;;;;6.95;4.13;;;15.70;87.60;;;;;;4856690;29;20046;-49
2022/04/21 13:12:43;;;;;;;5.75;4.20;;;15.70;90.00;;;;;;4853166;29;20167;-50
2022/04/21 13:15:10;;;;;;;6.07;4.30;;;15.70;89.10;;;;;;4857978;29;20045;-49
2022/04/21 13:17:37;;;;;;;9.32;4.38;;;15.70;89.20;;;;;;4855504;29;20102;-49
2022/04/21 13:20:04;;;;;;;6.88;4.15;;;15.70;86.10;;;;;;4860726;29;20049;-51
2022/04/21 13:22:31;;;;;;;;;;;15.70;89.70;;;;;;4857178;29;20037;-49
2022/04/21 13:24:58;;;;;;;7.20;4.55;;;15.80;88.30;;;;;;4861418;29;19931;-52
2022/04/21 13:27:26;;;;;;;5.40;3.85;;;15.90;87.30;;;;;;4857528;29;20054;-51
2022/04/21 13:29:56;;;;;;;7.65;4.78;;;15.90;86.80;;;;;;4860712;29;20056;-49
2022/04/21 13:35:08;;;;;;;7.88;4.60;;;15.90;87.90;;;;;;4860664;29;20041;-49
2022/04/21 13:37:35;;;;;;;5.72;4.28;;;16.10;86.30;;;;;;4856478;29;20046;-49
2022/04/21 13:40:02;;;;;;;4.35;3.80;;;16.00;84.60;;;;;;4860280;29;20440;-52
2022/04/21 13:42:29;;;;;;;7.68;4.85;;;16.00;86.20;;;;;;4843852;29;20070;-50
2022/04/21 13:44:56;;;;;;;6.70;4.43;;;16.00;86.60;;;;;;4861062;29;20045;-54
2022/04/21 13:47:42;;;;;;;6.93;4.55;;;16.00;86.30;;;;;;4860266;29;20091;-49
2022/04/21 13:50:09;;;;;;;6.75;4.80;;;16.00;85.60;;;;;;4859717;29;20053;-49
2022/04/21 13:52:38;;;;;;;10.20;4.60;;;16.00;87.60;;;;;;4857851;29;20087;-52
2022/04/21 13:55:05;;;;;;;7.32;4.10;;;16.00;86.20;;;;;;4860202;29;20171;-52